sensor_id;sensor_type;location;lat;lon;timestamp;P1;durP1;ratioP1;P2;durP2;ratioP2
17253;SDS011;32542;52.832;13.816;2024-01-25T00:00:10;5.47;;;2.05;;
17253;SDS011;32542;52.832;13.816;2024-01-25T00:03:14;7.32;;;2.38;;
17253;SDS011;32542;52.832;13.816;2024-01-25T00:06:17;4.97;;;2.10;;
17253;SDS011;32542;52.832;13.816;2024-01-25T00:09:21;6.78;;;2.25;;
17253;SDS011;32542;52.832;13.816;2024-01-25T00:12:24;8.10;;;2.22;;
17253;SDS011;32542;52.832;13.816;2024-01-25T00:15:27;6.90;;;2.00;;
17253;SDS011;32542;52.832;13.816;2024-01-25T00:18:30;7.75;;;1.90;;
17253;SDS011;32542;52.832;13.816;2024-01-25T00:21:34;7.25;;;2.55;;
17253;SDS011;32542;52.832;13.816;2024-01-25T00:24:39;3.97;;;1.90;;
17253;SDS011;32542;52.832;13.816;2024-01-25T00:27:42;5.30;;;2.38;;
17253;SDS011;32542;52.832;13.816;2024-01-25T00:30:46;8.13;;;2.45;;
17253;SDS011;32542;52.832;13.816;2024-01-25T00:33:49;5.93;;;2.20;;
17253;SDS011;32542;52.832;13.816;2024-01-25T00:36:53;6.25;;;2.17;;
17253;SDS011;32542;52.832;13.816;2024-01-25T00:39:58;5.55;;;2.00;;
17253;SDS011;32542;52.832;13.816;2024-01-25T00:43:01;5.85;;;2.42;;
17253;SDS011;32542;52.832;13.816;2024-01-25T00:46:05;5.25;;;2.05;;
17253;SDS011;32542;52.832;13.816;2024-01-25T00:49:08;7.55;;;2.40;;
17253;SDS011;32542;52.832;13.816;2024-01-25T00:52:12;6.60;;;1.80;;
17253;SDS011;32542;52.832;13.816;2024-01-25T00:55:17;5.32;;;2.15;;
17253;SDS011;32542;52.832;13.816;2024-01-25T00:58:22;6.88;;;2.05;;
17253;SDS011;32542;52.832;13.816;2024-01-25T01:01:26;6.50;;;1.98;;
17253;SDS011;32542;52.832;13.816;2024-01-25T01:04:30;4.75;;;2.42;;
17253;SDS011;32542;52.832;13.816;2024-01-25T01:07:47;10.18;;;2.40;;
17253;SDS011;32542;52.832;13.816;2024-01-25T01:10:53;5.43;;;2.10;;
17253;SDS011;32542;52.832;13.816;2024-01-25T01:13:56;3.17;;;1.63;;
17253;SDS011;32542;52.832;13.816;2024-01-25T01:16:59;5.70;;;1.90;;
17253;SDS011;32542;52.832;13.816;2024-01-25T01:20:02;5.20;;;1.63;;
17253;SDS011;32542;52.832;13.816;2024-01-25T01:23:06;6.30;;;1.95;;
17253;SDS011;32542;52.832;13.816;2024-01-25T01:26:11;5.65;;;2.05;;
17253;SDS011;32542;52.832;13.816;2024-01-25T01:29:14;6.55;;;2.03;;
17253;SDS011;32542;52.832;13.816;2024-01-25T01:32:17;5.25;;;2.03;;
17253;SDS011;32542;52.832;13.816;2024-01-25T01:35:20;5.18;;;1.75;;
17253;SDS011;32542;52.832;13.816;2024-01-25T01:38:23;5.05;;;1.80;;
17253;SDS011;32542;52.832;13.816;2024-01-25T01:41:28;4.97;;;1.65;;
17253;SDS011;32542;52.832;13.816;2024-01-25T01:44:31;8.32;;;2.47;;
17253;SDS011;32542;52.832;13.816;2024-01-25T01:47:34;5.72;;;1.90;;
17253;SDS011;32542;52.832;13.816;2024-01-25T01:50:37;5.03;;;1.80;;
17253;SDS011;32542;52.832;13.816;2024-01-25T01:53:40;7.65;;;2.00;;
17253;SDS011;32542;52.832;13.816;2024-01-25T01:56:46;3.28;;;1.98;;
17253;SDS011;32542;52.832;13.816;2024-01-25T01:59:49;5.75;;;2.03;;
17253;SDS011;32542;52.832;13.816;2024-01-25T02:02:53;4.55;;;1.98;;
17253;SDS011;32542;52.832;13.816;2024-01-25T02:05:56;6.95;;;1.95;;
17253;SDS011;32542;52.832;13.816;2024-01-25T02:09:04;3.85;;;1.80;;
17253;SDS011;32542;52.832;13.816;2024-01-25T02:12:09;5.50;;;2.13;;
17253;SDS011;32542;52.832;13.816;2024-01-25T02:15:12;6.00;;;1.80;;
17253;SDS011;32542;52.832;13.816;2024-01-25T02:18:15;5.72;;;1.90;;
17253;SDS011;32542;52.832;13.816;2024-01-25T02:21:18;4.75;;;1.92;;
17253;SDS011;32542;52.832;13.816;2024-01-25T02:24:22;5.38;;;1.80;;
17253;SDS011;32542;52.832;13.816;2024-01-25T02:27:26;3.88;;;1.50;;
17253;SDS011;32542;52.832;13.816;2024-01-25T02:30:29;6.22;;;1.77;;
17253;SDS011;32542;52.832;13.816;2024-01-25T02:33:32;4.90;;;1.52;;
17253;SDS011;32542;52.832;13.816;2024-01-25T02:36:36;4.88;;;1.85;;
17253;SDS011;32542;52.832;13.816;2024-01-25T02:39:40;4.57;;;1.40;;
17253;SDS011;32542;52.832;13.816;2024-01-25T02:42:43;4.57;;;1.80;;
17253;SDS011;32542;52.832;13.816;2024-01-25T02:45:46;2.78;;;1.25;;
17253;SDS011;32542;52.832;13.816;2024-01-25T02:48:50;6.13;;;2.15;;
17253;SDS011;32542;52.832;13.816;2024-01-25T02:51:54;5.70;;;1.70;;
17253;SDS011;32542;52.832;13.816;2024-01-25T02:54:58;7.35;;;1.88;;
17253;SDS011;32542;52.832;13.816;2024-01-25T02:58:01;6.15;;;1.75;;
17253;SDS011;32542;52.832;13.816;2024-01-25T03:01:05;5.85;;;1.70;;
17253;SDS011;32542;52.832;13.816;2024-01-25T03:04:08;5.47;;;2.03;;
17253;SDS011;32542;52.832;13.816;2024-01-25T03:07:11;5.95;;;1.80;;
17253;SDS011;32542;52.832;13.816;2024-01-25T03:10:16;5.10;;;1.90;;
17253;SDS011;32542;52.832;13.816;2024-01-25T03:13:19;5.30;;;1.98;;
17253;SDS011;32542;52.832;13.816;2024-01-25T03:16:23;4.13;;;1.83;;
17253;SDS011;32542;52.832;13.816;2024-01-25T03:19:26;5.35;;;2.03;;
17253;SDS011;32542;52.832;13.816;2024-01-25T03:22:30;4.85;;;1.73;;
17253;SDS011;32542;52.832;13.816;2024-01-25T03:25:34;6.05;;;1.77;;
17253;SDS011;32542;52.832;13.816;2024-01-25T03:28:37;5.18;;;1.95;;
17253;SDS011;32542;52.832;13.816;2024-01-25T03:31:41;4.80;;;1.70;;
17253;SDS011;32542;52.832;13.816;2024-01-25T03:34:45;5.18;;;1.77;;
17253;SDS011;32542;52.832;13.816;2024-01-25T03:37:48;6.88;;;1.92;;
17253;SDS011;32542;52.832;13.816;2024-01-25T03:40:53;5.43;;;1.90;;
17253;SDS011;32542;52.832;13.816;2024-01-25T03:43:56;4.68;;;1.92;;
17253;SDS011;32542;52.832;13.816;2024-01-25T03:47:00;4.50;;;1.80;;
17253;SDS011;32542;52.832;13.816;2024-01-25T03:50:03;4.10;;;1.48;;
17253;SDS011;32542;52.832;13.816;2024-01-25T03:53:08;5.63;;;1.85;;
17253;SDS011;32542;52.832;13.816;2024-01-25T03:56:12;5.57;;;1.60;;
17253;SDS011;32542;52.832;13.816;2024-01-25T03:59:18;4.88;;;1.80;;
17253;SDS011;32542;52.832;13.816;2024-01-25T04:02:21;5.05;;;1.70;;
17253;SDS011;32542;52.832;13.816;2024-01-25T04:05:25;4.78;;;1.60;;
17253;SDS011;32542;52.832;13.816;2024-01-25T04:08:28;4.57;;;1.45;;
17253;SDS011;32542;52.832;13.816;2024-01-25T04:11:33;5.70;;;1.67;;
17253;SDS011;32542;52.832;13.816;2024-01-25T04:14:36;4.72;;;1.73;;
17253;SDS011;32542;52.832;13.816;2024-01-25T04:17:39;4.40;;;1.73;;
17253;SDS011;32542;52.832;13.816;2024-01-25T04:20:43;5.03;;;1.77;;
17253;SDS011;32542;52.832;13.816;2024-01-25T04:23:46;5.53;;;1.60;;
17253;SDS011;32542;52.832;13.816;2024-01-25T04:26:51;4.78;;;2.17;;
17253;SDS011;32542;52.832;13.816;2024-01-25T04:29:54;4.07;;;1.73;;
17253;SDS011;32542;52.832;13.816;2024-01-25T04:32:57;6.05;;;1.58;;
17253;SDS011;32542;52.832;13.816;2024-01-25T04:36:01;3.70;;;1.55;;
17253;SDS011;32542;52.832;13.816;2024-01-25T04:39:04;4.00;;;1.60;;
17253;SDS011;32542;52.832;13.816;2024-01-25T04:42:09;3.42;;;1.40;;
17253;SDS011;32542;52.832;13.816;2024-01-25T04:45:12;5.35;;;1.77;;
17253;SDS011;32542;52.832;13.816;2024-01-25T04:48:15;6.65;;;1.60;;
17253;SDS011;32542;52.832;13.816;2024-01-25T04:51:19;5.38;;;2.03;;
17253;SDS011;32542;52.832;13.816;2024-01-25T04:54:22;5.57;;;1.45;;
17253;SDS011;32542;52.832;13.816;2024-01-25T04:57:27;5.10;;;1.80;;
17253;SDS011;32542;52.832;13.816;2024-01-25T05:00:30;4.80;;;1.98;;
17253;SDS011;32542;52.832;13.816;2024-01-25T05:03:33;3.88;;;1.50;;
17253;SDS011;32542;52.832;13.816;2024-01-25T05:06:37;5.47;;;1.70;;
17253;SDS011;32542;52.832;13.816;2024-01-25T05:09:40;3.78;;;1.80;;
17253;SDS011;32542;52.832;13.816;2024-01-25T05:12:44;6.07;;;2.13;;
17253;SDS011;32542;52.832;13.816;2024-01-25T05:15:47;3.30;;;1.33;;
17253;SDS011;32542;52.832;13.816;2024-01-25T05:18:51;5.30;;;1.58;;
17253;SDS011;32542;52.832;13.816;2024-01-25T05:21:54;4.00;;;1.52;;
17253;SDS011;32542;52.832;13.816;2024-01-25T05:24:58;4.00;;;1.63;;
17253;SDS011;32542;52.832;13.816;2024-01-25T05:28:02;4.47;;;1.63;;
17253;SDS011;32542;52.832;13.816;2024-01-25T05:31:06;4.05;;;1.73;;
17253;SDS011;32542;52.832;13.816;2024-01-25T05:34:14;3.97;;;1.33;;
17253;SDS011;32542;52.832;13.816;2024-01-25T05:37:17;7.05;;;2.00;;
17253;SDS011;32542;52.832;13.816;2024-01-25T05:40:20;5.80;;;1.63;;
17253;SDS011;32542;52.832;13.816;2024-01-25T05:43:25;3.80;;;1.63;;
17253;SDS011;32542;52.832;13.816;2024-01-25T05:46:29;6.00;;;1.70;;
17253;SDS011;32542;52.832;13.816;2024-01-25T05:49:32;7.40;;;1.80;;
17253;SDS011;32542;52.832;13.816;2024-01-25T05:52:35;4.35;;;1.70;;
17253;SDS011;32542;52.832;13.816;2024-01-25T05:55:39;5.25;;;1.73;;
17253;SDS011;32542;52.832;13.816;2024-01-25T05:58:44;4.47;;;1.75;;
17253;SDS011;32542;52.832;13.816;2024-01-25T06:01:47;5.90;;;1.70;;
17253;SDS011;32542;52.832;13.816;2024-01-25T06:04:50;7.25;;;2.00;;
17253;SDS011;32542;52.832;13.816;2024-01-25T06:07:53;4.25;;;1.70;;
17253;SDS011;32542;52.832;13.816;2024-01-25T06:10:57;4.35;;;1.70;;
17253;SDS011;32542;52.832;13.816;2024-01-25T06:14:01;7.35;;;1.80;;
17253;SDS011;32542;52.832;13.816;2024-01-25T06:17:05;6.18;;;1.65;;
17253;SDS011;32542;52.832;13.816;2024-01-25T06:20:08;7.13;;;2.03;;
17253;SDS011;32542;52.832;13.816;2024-01-25T06:23:13;5.30;;;1.98;;
17253;SDS011;32542;52.832;13.816;2024-01-25T06:26:16;4.13;;;1.83;;
17253;SDS011;32542;52.832;13.816;2024-01-25T06:29:20;4.65;;;1.77;;
17253;SDS011;32542;52.832;13.816;2024-01-25T06:32:23;4.18;;;1.48;;
17253;SDS011;32542;52.832;13.816;2024-01-25T06:35:27;4.35;;;1.52;;
17253;SDS011;32542;52.832;13.816;2024-01-25T06:38:31;6.50;;;1.75;;
17253;SDS011;32542;52.832;13.816;2024-01-25T06:41:34;4.85;;;1.33;;
17253;SDS011;32542;52.832;13.816;2024-01-25T06:44:38;4.75;;;1.73;;
17253;SDS011;32542;52.832;13.816;2024-01-25T06:47:41;5.35;;;2.25;;
17253;SDS011;32542;52.832;13.816;2024-01-25T06:50:45;4.63;;;1.80;;
17253;SDS011;32542;52.832;13.816;2024-01-25T06:53:48;5.03;;;1.65;;
17253;SDS011;32542;52.832;13.816;2024-01-25T06:56:51;5.97;;;1.80;;
17253;SDS011;32542;52.832;13.816;2024-01-25T06:59:59;3.08;;;1.60;;
17253;SDS011;32542;52.832;13.816;2024-01-25T07:03:03;4.35;;;1.60;;
17253;SDS011;32542;52.832;13.816;2024-01-25T07:06:07;3.63;;;1.60;;
17253;SDS011;32542;52.832;13.816;2024-01-25T07:09:11;5.95;;;2.20;;
17253;SDS011;32542;52.832;13.816;2024-01-25T07:12:14;4.63;;;1.60;;
17253;SDS011;32542;52.832;13.816;2024-01-25T07:15:19;4.10;;;1.27;;
17253;SDS011;32542;52.832;13.816;2024-01-25T07:18:22;6.00;;;2.00;;
17253;SDS011;32542;52.832;13.816;2024-01-25T07:21:26;3.17;;;1.60;;
17253;SDS011;32542;52.832;13.816;2024-01-25T07:24:29;5.57;;;2.05;;
17253;SDS011;32542;52.832;13.816;2024-01-25T07:27:33;4.93;;;1.70;;
17253;SDS011;32542;52.832;13.816;2024-01-25T07:30:38;7.70;;;2.08;;
17253;SDS011;32542;52.832;13.816;2024-01-25T07:33:41;6.65;;;1.80;;
17253;SDS011;32542;52.832;13.816;2024-01-25T07:36:44;4.93;;;1.52;;
17253;SDS011;32542;52.832;13.816;2024-01-25T07:39:48;4.53;;;1.67;;
17253;SDS011;32542;52.832;13.816;2024-01-25T07:42:51;5.75;;;1.90;;
17253;SDS011;32542;52.832;13.816;2024-01-25T07:45:55;4.38;;;1.58;;
17253;SDS011;32542;52.832;13.816;2024-01-25T07:48:58;13.43;;;2.78;;
17253;SDS011;32542;52.832;13.816;2024-01-25T07:52:02;18.05;;;3.78;;
17253;SDS011;32542;52.832;13.816;2024-01-25T07:55:07;13.35;;;3.10;;
17253;SDS011;32542;52.832;13.816;2024-01-25T07:58:10;10.77;;;2.67;;
17253;SDS011;32542;52.832;13.816;2024-01-25T08:01:18;11.30;;;2.55;;
17253;SDS011;32542;52.832;13.816;2024-01-25T08:04:21;15.65;;;2.97;;
17253;SDS011;32542;52.832;13.816;2024-01-25T08:07:24;15.60;;;2.95;;
17253;SDS011;32542;52.832;13.816;2024-01-25T08:10:28;12.43;;;2.60;;
17253;SDS011;32542;52.832;13.816;2024-01-25T08:13:31;9.77;;;2.65;;
17253;SDS011;32542;52.832;13.816;2024-01-25T08:16:37;13.32;;;2.55;;
17253;SDS011;32542;52.832;13.816;2024-01-25T08:19:41;14.57;;;3.28;;
17253;SDS011;32542;52.832;13.816;2024-01-25T08:22:44;13.30;;;3.00;;
17253;SDS011;32542;52.832;13.816;2024-01-25T08:25:47;10.95;;;3.08;;
17253;SDS011;32542;52.832;13.816;2024-01-25T08:28:51;11.25;;;2.58;;
17253;SDS011;32542;52.832;13.816;2024-01-25T08:31:55;9.80;;;2.58;;
17253;SDS011;32542;52.832;13.816;2024-01-25T08:34:58;10.23;;;2.50;;
17253;SDS011;32542;52.832;13.816;2024-01-25T08:38:02;11.35;;;2.50;;
17253;SDS011;32542;52.832;13.816;2024-01-25T08:41:05;9.70;;;2.55;;
17253;SDS011;32542;52.832;13.816;2024-01-25T08:44:08;7.53;;;2.35;;
17253;SDS011;32542;52.832;13.816;2024-01-25T08:47:13;8.02;;;2.45;;
17253;SDS011;32542;52.832;13.816;2024-01-25T08:50:16;9.70;;;2.58;;
17253;SDS011;32542;52.832;13.816;2024-01-25T08:53:20;9.60;;;2.40;;
17253;SDS011;32542;52.832;13.816;2024-01-25T08:56:28;7.70;;;2.30;;
17253;SDS011;32542;52.832;13.816;2024-01-25T08:59:31;9.27;;;2.38;;
17253;SDS011;32542;52.832;13.816;2024-01-25T09:02:40;9.18;;;2.78;;
17253;SDS011;32542;52.832;13.816;2024-01-25T09:05:43;11.85;;;2.15;;
17253;SDS011;32542;52.832;13.816;2024-01-25T09:08:47;7.03;;;2.05;;
17253;SDS011;32542;52.832;13.816;2024-01-25T09:11:51;11.88;;;2.78;;
17253;SDS011;32542;52.832;13.816;2024-01-25T09:14:55;10.48;;;2.58;;
17253;SDS011;32542;52.832;13.816;2024-01-25T09:17:59;8.77;;;2.30;;
17253;SDS011;32542;52.832;13.816;2024-01-25T09:21:03;10.43;;;2.72;;
17253;SDS011;32542;52.832;13.816;2024-01-25T09:24:06;10.07;;;2.55;;
17253;SDS011;32542;52.832;13.816;2024-01-25T09:27:09;12.02;;;2.47;;
17253;SDS011;32542;52.832;13.816;2024-01-25T09:30:13;7.45;;;2.20;;
17253;SDS011;32542;52.832;13.816;2024-01-25T09:33:18;7.80;;;2.70;;
17253;SDS011;32542;52.832;13.816;2024-01-25T09:36:22;5.88;;;2.08;;
17253;SDS011;32542;52.832;13.816;2024-01-25T09:39:25;11.68;;;2.45;;
17253;SDS011;32542;52.832;13.816;2024-01-25T09:42:28;6.32;;;2.33;;
17253;SDS011;32542;52.832;13.816;2024-01-25T09:45:31;14.18;;;2.28;;
17253;SDS011;32542;52.832;13.816;2024-01-25T09:48:37;16.77;;;2.60;;
17253;SDS011;32542;52.832;13.816;2024-01-25T09:51:42;15.95;;;2.70;;
17253;SDS011;32542;52.832;13.816;2024-01-25T09:54:46;10.07;;;2.30;;
17253;SDS011;32542;52.832;13.816;2024-01-25T09:57:49;12.93;;;2.95;;
17253;SDS011;32542;52.832;13.816;2024-01-25T10:00:56;18.33;;;2.42;;
17253;SDS011;32542;52.832;13.816;2024-01-25T10:04:01;17.08;;;3.10;;
17253;SDS011;32542;52.832;13.816;2024-01-25T10:07:09;16.33;;;2.80;;
17253;SDS011;32542;52.832;13.816;2024-01-25T10:10:13;13.13;;;2.55;;
17253;SDS011;32542;52.832;13.816;2024-01-25T10:13:17;12.85;;;2.50;;
17253;SDS011;32542;52.832;13.816;2024-01-25T10:16:20;12.13;;;2.13;;
17253;SDS011;32542;52.832;13.816;2024-01-25T10:19:26;9.77;;;2.58;;
17253;SDS011;32542;52.832;13.816;2024-01-25T10:22:29;8.55;;;2.22;;
17253;SDS011;32542;52.832;13.816;2024-01-25T10:25:33;9.13;;;2.80;;
17253;SDS011;32542;52.832;13.816;2024-01-25T10:28:38;8.32;;;2.70;;
17253;SDS011;32542;52.832;13.816;2024-01-25T10:31:42;15.48;;;2.28;;
17253;SDS011;32542;52.832;13.816;2024-01-25T10:34:47;13.57;;;2.47;;
17253;SDS011;32542;52.832;13.816;2024-01-25T10:37:53;13.40;;;2.80;;
17253;SDS011;32542;52.832;13.816;2024-01-25T10:40:58;9.13;;;1.85;;
17253;SDS011;32542;52.832;13.816;2024-01-25T10:44:03;10.55;;;2.33;;
17253;SDS011;32542;52.832;13.816;2024-01-25T10:47:08;14.20;;;2.20;;
17253;SDS011;32542;52.832;13.816;2024-01-25T10:50:13;11.43;;;2.65;;
17253;SDS011;32542;52.832;13.816;2024-01-25T10:53:17;11.63;;;2.08;;
17253;SDS011;32542;52.832;13.816;2024-01-25T10:56:20;6.97;;;1.80;;
17253;SDS011;32542;52.832;13.816;2024-01-25T10:59:23;9.52;;;2.38;;
17253;SDS011;32542;52.832;13.816;2024-01-25T11:02:29;7.15;;;2.60;;
17253;SDS011;32542;52.832;13.816;2024-01-25T11:05:33;8.00;;;1.90;;
17253;SDS011;32542;52.832;13.816;2024-01-25T11:08:38;9.55;;;2.05;;
17253;SDS011;32542;52.832;13.816;2024-01-25T11:11:43;6.65;;;1.90;;
17253;SDS011;32542;52.832;13.816;2024-01-25T11:14:53;7.50;;;1.83;;
17253;SDS011;32542;52.832;13.816;2024-01-25T11:17:56;7.97;;;1.95;;
17253;SDS011;32542;52.832;13.816;2024-01-25T11:21:01;8.18;;;2.22;;
17253;SDS011;32542;52.832;13.816;2024-01-25T11:24:11;4.78;;;1.92;;
17253;SDS011;32542;52.832;13.816;2024-01-25T11:27:15;9.13;;;2.40;;
17253;SDS011;32542;52.832;13.816;2024-01-25T11:30:18;9.23;;;2.55;;
17253;SDS011;32542;52.832;13.816;2024-01-25T11:33:21;7.88;;;2.15;;
17253;SDS011;32542;52.832;13.816;2024-01-25T11:36:26;6.93;;;1.83;;
17253;SDS011;32542;52.832;13.816;2024-01-25T11:39:31;9.75;;;2.40;;
17253;SDS011;32542;52.832;13.816;2024-01-25T11:42:35;10.05;;;2.33;;
17253;SDS011;32542;52.832;13.816;2024-01-25T11:45:38;6.97;;;2.17;;
17253;SDS011;32542;52.832;13.816;2024-01-25T11:48:45;8.05;;;2.35;;
17253;SDS011;32542;52.832;13.816;2024-01-25T11:51:50;4.95;;;2.08;;
17253;SDS011;32542;52.832;13.816;2024-01-25T11:54:53;4.57;;;1.80;;
17253;SDS011;32542;52.832;13.816;2024-01-25T11:57:56;7.07;;;2.60;;
17253;SDS011;32542;52.832;13.816;2024-01-25T12:00:59;13.73;;;3.33;;
17253;SDS011;32542;52.832;13.816;2024-01-25T12:04:07;9.68;;;2.80;;
17253;SDS011;32542;52.832;13.816;2024-01-25T12:07:12;12.65;;;3.53;;
17253;SDS011;32542;52.832;13.816;2024-01-25T12:10:16;11.90;;;3.30;;
17253;SDS011;32542;52.832;13.816;2024-01-25T12:13:19;15.20;;;3.20;;
17253;SDS011;32542;52.832;13.816;2024-01-25T12:16:23;13.93;;;3.30;;
17253;SDS011;32542;52.832;13.816;2024-01-25T12:19:26;14.20;;;3.90;;
17253;SDS011;32542;52.832;13.816;2024-01-25T12:22:32;9.93;;;2.85;;
17253;SDS011;32542;52.832;13.816;2024-01-25T12:25:39;15.90;;;3.20;;
17253;SDS011;32542;52.832;13.816;2024-01-25T12:28:43;10.55;;;2.92;;
17253;SDS011;32542;52.832;13.816;2024-01-25T12:31:46;9.52;;;3.03;;
17253;SDS011;32542;52.832;13.816;2024-01-25T12:34:52;14.68;;;2.97;;
17253;SDS011;32542;52.832;13.816;2024-01-25T12:37:58;13.10;;;3.20;;
17253;SDS011;32542;52.832;13.816;2024-01-25T12:41:01;14.32;;;3.17;;
17253;SDS011;32542;52.832;13.816;2024-01-25T12:44:05;8.85;;;2.58;;
17253;SDS011;32542;52.832;13.816;2024-01-25T12:47:10;9.93;;;3.08;;
17253;SDS011;32542;52.832;13.816;2024-01-25T12:50:14;9.68;;;2.75;;
17253;SDS011;32542;52.832;13.816;2024-01-25T12:53:19;10.60;;;3.03;;
17253;SDS011;32542;52.832;13.816;2024-01-25T12:56:23;9.35;;;2.88;;
17253;SDS011;32542;52.832;13.816;2024-01-25T12:59:26;7.78;;;2.72;;
17253;SDS011;32542;52.832;13.816;2024-01-25T13:02:30;11.43;;;2.80;;
17253;SDS011;32542;52.832;13.816;2024-01-25T13:05:33;8.88;;;2.38;;
17253;SDS011;32542;52.832;13.816;2024-01-25T13:08:38;6.65;;;2.78;;
17253;SDS011;32542;52.832;13.816;2024-01-25T13:11:41;16.70;;;2.60;;
17253;SDS011;32542;52.832;13.816;2024-01-25T13:14:45;7.75;;;2.63;;
17253;SDS011;32542;52.832;13.816;2024-01-25T13:17:48;7.82;;;2.40;;
17253;SDS011;32542;52.832;13.816;2024-01-25T13:20:51;5.65;;;2.28;;
17253;SDS011;32542;52.832;13.816;2024-01-25T13:23:56;10.90;;;2.60;;
17253;SDS011;32542;52.832;13.816;2024-01-25T13:26:59;7.93;;;2.45;;
17253;SDS011;32542;52.832;13.816;2024-01-25T13:30:02;8.80;;;2.33;;
17253;SDS011;32542;52.832;13.816;2024-01-25T13:33:06;9.43;;;2.78;;
17253;SDS011;32542;52.832;13.816;2024-01-25T13:36:10;8.48;;;2.53;;
17253;SDS011;32542;52.832;13.816;2024-01-25T13:39:16;8.50;;;2.50;;
17253;SDS011;32542;52.832;13.816;2024-01-25T13:42:19;6.43;;;2.15;;
17253;SDS011;32542;52.832;13.816;2024-01-25T13:45:22;9.75;;;2.15;;
17253;SDS011;32542;52.832;13.816;2024-01-25T13:48:26;12.35;;;2.33;;
17253;SDS011;32542;52.832;13.816;2024-01-25T13:51:29;11.18;;;2.53;;
17253;SDS011;32542;52.832;13.816;2024-01-25T13:54:34;9.90;;;2.42;;
17253;SDS011;32542;52.832;13.816;2024-01-25T13:57:37;10.13;;;2.30;;
17253;SDS011;32542;52.832;13.816;2024-01-25T14:00:40;7.00;;;2.10;;
17253;SDS011;32542;52.832;13.816;2024-01-25T14:03:44;11.27;;;2.20;;
17253;SDS011;32542;52.832;13.816;2024-01-25T14:06:47;8.80;;;2.20;;
17253;SDS011;32542;52.832;13.816;2024-01-25T14:09:52;6.88;;;2.10;;
17253;SDS011;32542;52.832;13.816;2024-01-25T14:12:55;5.53;;;1.98;;
17253;SDS011;32542;52.832;13.816;2024-01-25T14:15:59;7.43;;;2.15;;
17253;SDS011;32542;52.832;13.816;2024-01-25T14:19:02;6.88;;;2.05;;
17253;SDS011;32542;52.832;13.816;2024-01-25T14:22:06;8.32;;;1.80;;
17253;SDS011;32542;52.832;13.816;2024-01-25T14:25:30;7.50;;;2.25;;
17253;SDS011;32542;52.832;13.816;2024-01-25T14:28:33;10.80;;;2.03;;
17253;SDS011;32542;52.832;13.816;2024-01-25T14:31:36;6.20;;;1.90;;
17253;SDS011;32542;52.832;13.816;2024-01-25T14:34:40;8.38;;;1.88;;
17253;SDS011;32542;52.832;13.816;2024-01-25T14:37:43;9.00;;;2.10;;
17253;SDS011;32542;52.832;13.816;2024-01-25T14:40:47;5.72;;;2.15;;
17253;SDS011;32542;52.832;13.816;2024-01-25T14:43:59;11.18;;;1.95;;
17253;SDS011;32542;52.832;13.816;2024-01-25T14:47:03;8.30;;;2.55;;
17253;SDS011;32542;52.832;13.816;2024-01-25T14:50:06;8.43;;;1.70;;
17253;SDS011;32542;52.832;13.816;2024-01-25T14:53:09;9.77;;;1.83;;
17253;SDS011;32542;52.832;13.816;2024-01-25T14:56:14;7.07;;;2.55;;
17253;SDS011;32542;52.832;13.816;2024-01-25T14:59:17;5.45;;;1.45;;
17253;SDS011;32542;52.832;13.816;2024-01-25T15:02:20;7.78;;;2.00;;
17253;SDS011;32542;52.832;13.816;2024-01-25T15:05:23;8.63;;;2.00;;
17253;SDS011;32542;52.832;13.816;2024-01-25T15:08:26;8.43;;;1.88;;
17253;SDS011;32542;52.832;13.816;2024-01-25T15:11:31;7.05;;;2.13;;
17253;SDS011;32542;52.832;13.816;2024-01-25T15:14:34;6.35;;;1.88;;
17253;SDS011;32542;52.832;13.816;2024-01-25T15:17:37;4.07;;;1.92;;
17253;SDS011;32542;52.832;13.816;2024-01-25T15:20:40;6.15;;;1.70;;
17253;SDS011;32542;52.832;13.816;2024-01-25T15:23:43;4.63;;;1.60;;
17253;SDS011;32542;52.832;13.816;2024-01-25T15:26:48;5.03;;;1.60;;
17253;SDS011;32542;52.832;13.816;2024-01-25T15:29:51;3.42;;;1.77;;
17253;SDS011;32542;52.832;13.816;2024-01-25T15:32:54;3.35;;;1.50;;
17253;SDS011;32542;52.832;13.816;2024-01-25T15:35:57;3.50;;;1.60;;
17253;SDS011;32542;52.832;13.816;2024-01-25T15:39:01;5.05;;;1.50;;
17253;SDS011;32542;52.832;13.816;2024-01-25T15:42:06;4.07;;;1.50;;
17253;SDS011;32542;52.832;13.816;2024-01-25T15:45:09;4.30;;;1.35;;
17253;SDS011;32542;52.832;13.816;2024-01-25T15:48:13;8.85;;;1.85;;
17253;SDS011;32542;52.832;13.816;2024-01-25T15:51:16;5.75;;;1.90;;
17253;SDS011;32542;52.832;13.816;2024-01-25T15:54:19;5.03;;;1.65;;
17253;SDS011;32542;52.832;13.816;2024-01-25T15:57:24;6.72;;;1.63;;
17253;SDS011;32542;52.832;13.816;2024-01-25T16:00:28;6.50;;;1.60;;
17253;SDS011;32542;52.832;13.816;2024-01-25T16:03:31;5.07;;;1.70;;
17253;SDS011;32542;52.832;13.816;2024-01-25T16:06:34;6.93;;;1.60;;
17253;SDS011;32542;52.832;13.816;2024-01-25T16:09:37;5.97;;;1.35;;
17253;SDS011;32542;52.832;13.816;2024-01-25T16:12:42;4.90;;;1.52;;
17253;SDS011;32542;52.832;13.816;2024-01-25T16:15:46;3.88;;;1.40;;
17253;SDS011;32542;52.832;13.816;2024-01-25T16:18:49;2.88;;;1.33;;
17253;SDS011;32542;52.832;13.816;2024-01-25T16:21:52;4.35;;;1.55;;
17253;SDS011;32542;52.832;13.816;2024-01-25T16:24:56;6.22;;;1.73;;
17253;SDS011;32542;52.832;13.816;2024-01-25T16:28:00;6.53;;;1.88;;
17253;SDS011;32542;52.832;13.816;2024-01-25T16:31:04;5.47;;;1.60;;
17253;SDS011;32542;52.832;13.816;2024-01-25T16:34:07;4.95;;;1.40;;
17253;SDS011;32542;52.832;13.816;2024-01-25T16:37:10;4.35;;;1.67;;
17253;SDS011;32542;52.832;13.816;2024-01-25T16:40:13;4.97;;;1.73;;
17253;SDS011;32542;52.832;13.816;2024-01-25T16:43:18;3.85;;;1.60;;
17253;SDS011;32542;52.832;13.816;2024-01-25T16:46:21;4.40;;;1.23;;
17253;SDS011;32542;52.832;13.816;2024-01-25T16:49:24;9.77;;;1.90;;
17253;SDS011;32542;52.832;13.816;2024-01-25T16:52:29;9.55;;;1.70;;
17253;SDS011;32542;52.832;13.816;2024-01-25T16:55:32;9.10;;;1.80;;
17253;SDS011;32542;52.832;13.816;2024-01-25T16:58:37;9.00;;;2.15;;
17253;SDS011;32542;52.832;13.816;2024-01-25T17:01:40;3.95;;;1.45;;
17253;SDS011;32542;52.832;13.816;2024-01-25T17:04:43;9.07;;;1.70;;
17253;SDS011;32542;52.832;13.816;2024-01-25T17:07:47;4.35;;;1.40;;
17253;SDS011;32542;52.832;13.816;2024-01-25T17:10:51;10.82;;;1.92;;
17253;SDS011;32542;52.832;13.816;2024-01-25T17:13:56;6.95;;;1.92;;
17253;SDS011;32542;52.832;13.816;2024-01-25T17:16:59;11.63;;;1.98;;
17253;SDS011;32542;52.832;13.816;2024-01-25T17:20:03;13.23;;;2.08;;
17253;SDS011;32542;52.832;13.816;2024-01-25T17:23:07;11.15;;;1.92;;
17253;SDS011;32542;52.832;13.816;2024-01-25T17:27:13;11.07;;;2.20;;
17253;SDS011;32542;52.832;13.816;2024-01-25T17:30:18;5.63;;;1.75;;
17253;SDS011;32542;52.832;13.816;2024-01-25T17:33:21;8.55;;;1.88;;
17253;SDS011;32542;52.832;13.816;2024-01-25T17:36:24;9.05;;;1.77;;
17253;SDS011;32542;52.832;13.816;2024-01-25T17:39:27;5.97;;;1.63;;
17253;SDS011;32542;52.832;13.816;2024-01-25T17:42:31;9.98;;;1.77;;
17253;SDS011;32542;52.832;13.816;2024-01-25T17:45:35;9.25;;;1.90;;
17253;SDS011;32542;52.832;13.816;2024-01-25T17:48:39;4.47;;;1.30;;
17253;SDS011;32542;52.832;13.816;2024-01-25T17:51:42;5.18;;;1.30;;
17253;SDS011;32542;52.832;13.816;2024-01-25T17:54:45;7.75;;;1.83;;
17253;SDS011;32542;52.832;13.816;2024-01-25T17:57:48;3.67;;;1.50;;
17253;SDS011;32542;52.832;13.816;2024-01-25T18:00:53;10.80;;;2.08;;
17253;SDS011;32542;52.832;13.816;2024-01-25T18:03:57;4.05;;;1.67;;
17253;SDS011;32542;52.832;13.816;2024-01-25T18:07:00;8.65;;;2.00;;